createdAt,value
2022-11-29T00:01:22.891Z,93.05
2022-11-29T00:03:49.989Z,93.16
2022-11-29T00:06:20.076Z,93.25
2022-11-29T00:08:48.079Z,92.29
2022-11-29T00:11:19.925Z,92.60
2022-11-29T00:13:46.742Z,92.24
2022-11-29T00:16:13.589Z,92.38
2022-11-29T00:18:40.415Z,92.20
2022-11-29T00:21:09.036Z,92.11
2022-11-29T00:23:36.339Z,92.33
2022-11-29T00:26:05.290Z,92.29
2022-11-29T00:28:35.775Z,92.70
2022-11-29T00:31:15.284Z,92.26
2022-11-29T00:33:42.582Z,92.41
2022-11-29T00:36:10.069Z,91.96
2022-11-29T00:38:37.203Z,92.38
2022-11-29T00:41:04.783Z,91.82
2022-11-29T00:43:33.576Z,91.89
2022-11-29T00:46:00.787Z,91.90
2022-11-29T00:48:27.937Z,91.80
2022-11-29T00:50:55.032Z,92.15
2022-11-29T00:53:21.942Z,92.16
2022-11-29T00:55:50.156Z,91.97
2022-11-29T00:58:17.526Z,91.77
2022-11-29T01:00:45.776Z,91.95
2022-11-29T01:03:12.649Z,92.33
2022-11-29T01:05:40.162Z,91.99
2022-11-29T01:08:07.222Z,92.40
2022-11-29T01:10:34.101Z,91.99
2022-11-29T01:13:00.989Z,91.75
2022-11-29T01:15:28.732Z,92.16
2022-11-29T01:17:57.012Z,91.66
2022-11-29T01:20:24.304Z,91.93
2022-11-29T01:22:51.748Z,92.09
2022-11-29T01:25:18.915Z,91.84
2022-11-29T01:27:46.080Z,92.08
2022-11-29T01:30:14.369Z,92.05
2022-11-29T01:32:42.071Z,91.84
2022-11-29T01:35:10.571Z,91.74
2022-11-29T01:37:37.727Z,92.23
2022-11-29T01:40:07.129Z,92.41
2022-11-29T01:42:34.076Z,91.93
2022-11-29T01:45:07.950Z,92.10
2022-11-29T01:47:45.877Z,92.04
2022-11-29T01:50:14.881Z,92.57
2022-11-29T01:52:42.266Z,92.59
2022-11-29T01:55:10.113Z,92.83
2022-11-29T01:57:41.349Z,93.60
2022-11-29T02:00:13.334Z,93.80
2022-11-29T02:02:45.184Z,93.69
2022-11-29T02:05:18.463Z,94.06
2022-11-29T02:07:49.658Z,94.02
2022-11-29T02:10:17.937Z,94.13
2022-11-29T02:13:00.584Z,94.15
2022-11-29T02:15:42.614Z,93.52
2022-11-29T02:18:14.844Z,93.49
2022-11-29T02:21:16.519Z,93.73
2022-11-29T02:24:55.944Z,93.29
2022-11-29T02:28:18.207Z,93.10
2022-11-29T02:31:26.583Z,92.62
2022-11-29T02:34:28.164Z,92.38
2022-11-29T02:37:22.216Z,92.55
2022-11-29T02:40:16.610Z,92.48
2022-11-29T02:43:22.320Z,92.30
2022-11-29T02:46:13.364Z,92.81
2022-11-29T02:49:00.493Z,93.02
2022-11-29T02:51:42.830Z,92.85
2022-11-29T02:54:25.786Z,92.87
2022-11-29T02:57:01.954Z,92.75
2022-11-29T02:59:47.655Z,92.85
2022-11-29T03:02:28.788Z,92.61
2022-11-29T03:05:09.685Z,93.17
2022-11-29T03:07:53.583Z,92.64
2022-11-29T03:10:38.638Z,93.25
2022-11-29T03:13:20.018Z,93.28
2022-11-29T03:15:58.747Z,93.48
2022-11-29T03:18:39.621Z,93.77
2022-11-29T03:21:18.773Z,93.47
2022-11-29T03:23:52.541Z,93.72
2022-11-29T03:26:30.063Z,93.49
2022-11-29T03:29:06.413Z,94.01
2022-11-29T03:31:42.316Z,94.08
2022-11-29T03:34:22.956Z,93.73
2022-11-29T03:37:01.161Z,93.68
2022-11-29T03:39:48.684Z,94.17
2022-11-29T03:42:24.628Z,93.72
2022-11-29T03:45:03.391Z,94.07
2022-11-29T03:47:40.212Z,94.12
2022-11-29T03:50:16.423Z,93.97
2022-11-29T03:52:53.427Z,93.88
2022-11-29T03:55:45.076Z,93.99
2022-11-29T03:58:31.968Z,93.79
2022-11-29T04:01:29.129Z,93.92
2022-11-29T04:04:43.433Z,93.96
2022-11-29T04:07:40.746Z,93.67
2022-11-29T04:10:30.739Z,94.20
2022-11-29T04:13:57.316Z,94.19
2022-11-29T04:17:04.216Z,93.58
2022-11-29T04:20:22.805Z,93.86
2022-11-29T04:23:56.480Z,94.20
2022-11-29T04:27:22.425Z,93.89
2022-11-29T04:30:10.723Z,93.61
2022-11-29T04:33:28.405Z,93.73
2022-11-29T04:36:23.707Z,93.49
2022-11-29T04:39:33.041Z,92.84
2022-11-29T04:42:36.579Z,93.27
2022-11-29T04:45:48.507Z,92.88
2022-11-29T04:48:51.094Z,93.11
2022-11-29T04:51:39.866Z,92.69
2022-11-29T04:54:19.602Z,92.71
2022-11-29T04:56:51.507Z,92.95
2022-11-29T04:59:27.880Z,92.58
2022-11-29T05:02:10.420Z,92.97
2022-11-29T05:04:53.097Z,92.98
2022-11-29T05:07:37.301Z,92.75
2022-11-29T05:10:26.066Z,92.74
2022-11-29T05:13:09.362Z,92.75
2022-11-29T05:16:06.501Z,92.89
2022-11-29T05:19:28.492Z,92.64
2022-11-29T05:22:19.416Z,93.04
2022-11-29T05:25:00.744Z,93.02
2022-11-29T05:27:43.243Z,92.92
2022-11-29T05:30:15.142Z,93.26
2022-11-29T05:32:57.509Z,93.11
2022-11-29T05:36:07.006Z,93.27
2022-11-29T05:39:06.421Z,93.20
2022-11-29T05:42:06.761Z,93.56
2022-11-29T05:44:43.336Z,93.16
2022-11-29T05:47:17.576Z,93.52
2022-11-29T05:49:59.973Z,93.24
2022-11-29T05:52:44.721Z,93.62
2022-11-29T05:55:31.860Z,93.65
2022-11-29T05:58:10.905Z,93.57
2022-11-29T06:00:50.052Z,93.96
2022-11-29T06:03:34.887Z,93.86
2022-11-29T06:06:12.828Z,93.38
2022-11-29T06:08:51.474Z,94.11
2022-11-29T06:11:27.731Z,93.92
2022-11-29T06:18:30.402Z,93.80
2022-11-29T06:21:17.128Z,93.82
2022-11-29T06:24:14.572Z,93.87
2022-11-29T06:27:03.654Z,94.35
2022-11-29T06:29:43.805Z,93.96
2022-11-29T06:32:30.214Z,94.19
2022-11-29T06:35:04.602Z,93.80
2022-11-29T06:37:39.692Z,94.09
2022-11-29T06:40:14.096Z,94.16
2022-11-29T06:42:41.709Z,94.39
2022-11-29T06:45:13.149Z,94.28
2022-11-29T06:47:46.238Z,94.63
2022-11-29T06:50:36.594Z,94.45
2022-11-29T06:53:17.680Z,94.61
2022-11-29T06:55:56.669Z,94.99
2022-11-29T06:58:51.305Z,94.64
2022-11-29T07:01:33.456Z,94.38
2022-11-29T07:04:48.733Z,94.88
2022-11-29T07:07:21.864Z,94.52
2022-11-29T07:09:54.316Z,94.56
2022-11-29T07:12:24.299Z,94.48
2022-11-29T07:14:52.371Z,95.30
2022-11-29T07:17:30.225Z,94.63
2022-11-29T07:20:09.578Z,94.40
2022-11-29T07:22:54.844Z,94.51
2022-11-29T07:25:39.358Z,94.80
2022-11-29T07:28:29.363Z,94.79
2022-11-29T07:31:09.324Z,94.95
2022-11-29T07:33:52.296Z,93.89
2022-11-29T07:36:34.149Z,94.15
2022-11-29T07:39:19.708Z,94.55
2022-11-29T07:42:01.432Z,94.31
2022-11-29T07:44:45.075Z,93.55
2022-11-29T07:47:13.074Z,91.86
2022-11-29T07:49:39.976Z,91.80
2022-11-29T07:52:06.895Z,91.75
2022-11-29T07:54:34.187Z,91.76
2022-11-29T07:57:00.972Z,91.44
2022-11-29T07:59:27.891Z,91.83
2022-11-29T08:01:56.660Z,91.78
2022-11-29T08:04:23.521Z,91.43
2022-11-29T08:06:50.763Z,91.81
2022-11-29T08:09:18.243Z,92.00
2022-11-29T08:11:45.031Z,91.41
2022-11-29T08:14:12.013Z,91.44
2022-11-29T08:16:38.886Z,91.49
2022-11-29T08:19:07.339Z,91.11
2022-11-29T08:21:34.284Z,91.66
2022-11-29T08:24:01.227Z,91.40
2022-11-29T08:26:31.624Z,91.73
2022-11-29T08:28:59.273Z,91.72
2022-11-29T08:31:26.200Z,91.47
2022-11-29T08:33:53.362Z,90.59
2022-11-29T08:36:21.661Z,90.73
2022-11-29T08:38:49.119Z,90.86
2022-11-29T08:41:17.365Z,90.78
2022-11-29T08:43:45.061Z,91.00
2022-11-29T08:46:18.312Z,90.87
2022-11-29T08:48:46.188Z,91.00
2022-11-29T08:51:13.454Z,90.99
2022-11-29T08:53:41.976Z,90.83
2022-11-29T08:56:49.399Z,90.80
2022-11-29T08:58:58.598Z,90.57
2022-11-29T09:01:25.552Z,90.77
2022-11-29T09:03:52.508Z,91.08
2022-11-29T09:06:19.819Z,91.45
2022-11-29T09:08:47.956Z,91.04
2022-11-29T09:11:18.995Z,91.22
2022-11-29T09:13:49.420Z,90.81
2022-11-29T09:16:21.351Z,90.72
2022-11-29T09:18:51.876Z,90.85
2022-11-29T09:21:19.219Z,91.15
2022-11-29T09:23:47.920Z,90.98
2022-11-29T09:26:18.724Z,91.56
2022-11-29T09:28:46.250Z,91.92
2022-11-29T09:31:16.043Z,91.56
2022-11-29T09:33:43.142Z,91.04
2022-11-29T09:36:11.892Z,91.17
2022-11-29T09:38:43.879Z,91.13
2022-11-29T09:41:47.087Z,90.91
2022-11-29T09:44:29.921Z,91.13
2022-11-29T09:47:12.516Z,91.05
2022-11-29T09:50:03.197Z,90.98
2022-11-29T09:52:47.283Z,90.55
2022-11-29T09:55:48.070Z,90.70
2022-11-29T09:58:22.563Z,90.73
2022-11-29T10:00:53.681Z,90.66
2022-11-29T10:03:26.279Z,90.37
2022-11-29T10:06:02.263Z,90.49
2022-11-29T10:08:38.126Z,90.74
2022-11-29T10:11:27.815Z,90.89
2022-11-29T10:14:03.477Z,90.37
2022-11-29T10:16:52.007Z,90.33
2022-11-29T10:19:27.858Z,90.40
2022-11-29T10:22:03.713Z,90.56
2022-11-29T10:24:33.294Z,90.20
2022-11-29T10:27:09.041Z,90.43
2022-11-29T10:29:57.997Z,89.93
2022-11-29T10:32:34.336Z,89.86
2022-11-29T10:35:01.839Z,89.42
2022-11-29T10:37:29.835Z,89.02
2022-11-29T10:40:04.420Z,88.97
2022-11-29T10:42:32.776Z,88.73
2022-11-29T10:45:02.678Z,89.04
2022-11-29T10:47:31.247Z,89.59
2022-11-29T10:49:59.408Z,89.14
2022-11-29T10:52:26.272Z,88.50
2022-11-29T10:55:01.644Z,88.17
2022-11-29T10:57:28.636Z,87.99
2022-11-29T11:00:04.963Z,87.98
2022-11-29T11:02:33.893Z,88.01
2022-11-29T11:05:01.465Z,88.20
2022-11-29T11:07:33.135Z,87.78
2022-11-29T11:10:00.939Z,88.16
2022-11-29T11:12:31.696Z,87.85
2022-11-29T11:15:27.444Z,87.99
2022-11-29T11:17:58.451Z,87.74
2022-11-29T11:20:28.897Z,87.35
2022-11-29T11:23:00.095Z,86.83
2022-11-29T11:25:30.954Z,86.65
2022-11-29T11:28:13.127Z,87.40
2022-11-29T11:30:55.724Z,86.65
2022-11-29T11:33:27.914Z,87.08
2022-11-29T11:36:09.751Z,86.24
2022-11-29T11:38:50.098Z,86.43
2022-11-29T11:41:23.589Z,86.58
2022-11-29T11:43:55.810Z,86.18
2022-11-29T11:46:50.588Z,86.66
2022-11-29T11:49:31.213Z,85.86
2022-11-29T11:52:05.458Z,85.26
2022-11-29T11:54:32.983Z,85.49
2022-11-29T11:57:00.218Z,85.73
2022-11-29T11:59:29.180Z,85.73
2022-11-29T12:01:59.211Z,85.84
2022-11-29T12:04:37.127Z,86.69
2022-11-29T12:07:17.919Z,86.43
2022-11-29T12:09:59.374Z,87.38
2022-11-29T12:12:31.282Z,86.47
2022-11-29T12:15:03.072Z,86.39
2022-11-29T12:17:39.638Z,86.33
2022-11-29T12:20:25.784Z,86.32
2022-11-29T12:23:24.081Z,86.20
2022-11-29T12:25:58.180Z,86.83
2022-11-29T12:28:31.324Z,86.80
2022-11-29T12:31:16.705Z,86.84
2022-11-29T12:33:58.006Z,86.36
2022-11-29T12:36:38.287Z,86.37
2022-11-29T12:39:27.886Z,86.34
2022-11-29T12:42:03.268Z,86.04
2022-11-29T12:44:50.822Z,85.72
2022-11-29T12:47:38.709Z,85.68
2022-11-29T12:50:25.940Z,86.37
2022-11-29T12:53:20.150Z,86.47
2022-11-29T12:56:05.835Z,86.15
2022-11-29T12:58:46.953Z,85.71
2022-11-29T13:01:29.042Z,86.31
2022-11-29T13:04:10.129Z,86.80
2022-11-29T13:06:49.652Z,86.14
2022-11-29T13:09:57.048Z,86.84
2022-11-29T13:12:35.254Z,87.38
2022-11-29T13:15:11.144Z,87.18
2022-11-29T13:17:52.926Z,87.55
2022-11-29T13:20:33.377Z,87.49
2022-11-29T13:23:16.261Z,87.99
2022-11-29T13:25:48.852Z,87.51
2022-11-29T13:28:24.033Z,87.67
2022-11-29T13:30:54.766Z,87.18
2022-11-29T13:33:32.144Z,87.07
2022-11-29T13:36:11.115Z,87.61
2022-11-29T13:38:50.203Z,87.13
2022-11-29T13:41:30.232Z,87.38
2022-11-29T13:44:11.277Z,87.69
2022-11-29T13:46:50.799Z,87.84
2022-11-29T13:49:23.354Z,87.86
2022-11-29T13:52:05.680Z,87.72
2022-11-29T13:54:34.344Z,88.22
2022-11-29T13:57:05.601Z,88.40
2022-11-29T13:59:36.927Z,87.91
2022-11-29T14:02:27.553Z,88.18
2022-11-29T14:04:54.573Z,87.97
2022-11-29T14:07:21.568Z,87.73
2022-11-29T14:10:02.164Z,88.12
2022-11-29T14:12:37.048Z,87.71
2022-11-29T14:15:22.497Z,87.63
2022-11-29T14:17:54.078Z,87.50
2022-11-29T14:20:58.181Z,87.89
2022-11-29T14:23:42.640Z,87.62
2022-11-29T14:26:28.629Z,87.83
2022-11-29T14:28:58.243Z,87.56
2022-11-29T14:31:54.748Z,87.62
2022-11-29T14:34:47.813Z,87.45
2022-11-29T14:37:37.342Z,87.55
2022-11-29T14:40:26.057Z,87.73
2022-11-29T14:42:54.880Z,87.84
2022-11-29T14:45:27.734Z,88.02
2022-11-29T14:47:56.297Z,88.33
2022-11-29T14:50:33.868Z,88.21
2022-11-29T14:53:02.309Z,87.96
2022-11-29T14:55:35.520Z,87.97
2022-11-29T14:58:19.565Z,87.62
2022-11-29T15:01:08.058Z,87.61
2022-11-29T15:03:49.509Z,87.92
2022-11-29T15:06:25.847Z,87.78
2022-11-29T15:09:02.823Z,87.87
2022-11-29T15:11:50.287Z,87.79
2022-11-29T15:14:35.390Z,87.72
2022-11-29T15:17:22.974Z,87.43
2022-11-29T15:20:27.562Z,87.77
2022-11-29T15:22:59.253Z,87.76
2022-11-29T15:25:29.381Z,87.48
2022-11-29T15:27:58.899Z,87.91
2022-11-29T15:30:34.567Z,87.61
2022-11-29T15:33:06.525Z,88.22
2022-11-29T15:35:36.060Z,88.50
2022-11-29T15:38:03.254Z,88.35
2022-11-29T15:40:32.239Z,88.42
2022-11-29T15:43:14.529Z,88.35
2022-11-29T15:45:50.454Z,88.13
2022-11-29T15:48:28.176Z,88.33
2022-11-29T15:51:05.124Z,88.44
2022-11-29T15:53:44.484Z,88.16
2022-11-29T15:56:22.511Z,88.06
2022-11-29T15:59:02.520Z,87.77
2022-11-29T16:01:34.736Z,88.14
2022-11-29T16:04:02.445Z,87.94
2022-11-29T16:06:38.824Z,87.96
2022-11-29T16:09:09.829Z,88.04
2022-11-29T16:11:38.470Z,87.85
2022-11-29T16:14:18.001Z,88.09
2022-11-29T16:16:50.163Z,87.86
2022-11-29T16:19:32.548Z,87.94
2022-11-29T17:29:52.449Z,88.00
2022-11-29T17:31:49.603Z,87.85
2022-11-29T17:34:17.571Z,86.89
2022-11-29T17:36:44.410Z,86.94
2022-11-29T17:39:11.697Z,86.77
2022-11-29T17:41:38.481Z,86.58
2022-11-29T17:44:05.497Z,87.30
2022-11-29T17:46:35.992Z,86.90
2022-11-29T17:49:07.225Z,87.25
2022-11-29T17:51:52.990Z,88.00
2022-11-29T17:54:20.753Z,87.98
2022-11-29T17:56:47.852Z,88.03
2022-11-29T17:59:14.632Z,87.60
2022-11-29T18:01:41.581Z,87.25
2022-11-29T18:04:10.083Z,87.23
2022-11-29T18:06:39.609Z,87.21
2022-11-29T18:09:09.636Z,86.91
2022-11-29T18:11:46.928Z,87.23
2022-11-29T18:14:17.866Z,88.27
2022-11-29T18:16:45.211Z,87.95
2022-11-29T18:19:16.500Z,88.83
2022-11-29T18:21:44.547Z,87.89
2022-11-29T18:24:12.118Z,87.95
2022-11-29T18:26:39.996Z,87.94
2022-11-29T18:29:07.849Z,87.21
2022-11-29T18:31:36.972Z,87.15
2022-11-29T18:34:07.358Z,87.31
2022-11-29T18:36:38.960Z,86.47
2022-11-29T18:39:09.202Z,86.37
2022-11-29T18:41:36.853Z,86.10
2022-11-29T18:44:07.097Z,86.59
2022-11-29T18:46:35.461Z,86.19
2022-11-29T18:49:04.866Z,86.27
2022-11-29T18:51:32.738Z,86.39
2022-11-29T18:54:01.603Z,85.97
2022-11-29T18:56:32.340Z,86.48
2022-11-29T18:59:03.471Z,85.57
2022-11-29T19:01:33.765Z,85.50
2022-11-29T19:04:01.863Z,85.77
2022-11-29T19:06:38.946Z,86.02
2022-11-29T19:09:14.650Z,85.49
2022-11-29T19:11:42.223Z,85.95
2022-11-29T19:14:11.981Z,85.86
2022-11-29T19:16:42.173Z,86.01
2022-11-29T19:19:09.486Z,85.90
2022-11-29T19:21:36.809Z,85.89
2022-11-29T19:24:11.242Z,85.27
2022-11-29T19:26:38.686Z,85.19
2022-11-29T19:29:05.864Z,85.45
2022-11-29T19:31:33.465Z,85.70
2022-11-29T19:34:00.332Z,85.41
2022-11-29T19:36:29.539Z,85.82
2022-11-29T19:38:57.483Z,86.03
2022-11-29T19:41:28.717Z,85.72
2022-11-29T19:43:58.253Z,85.82
2022-11-29T19:46:27.830Z,86.11
2022-11-29T19:48:57.085Z,86.08
2022-11-29T19:51:27.178Z,85.93
2022-11-29T19:53:56.907Z,85.55
2022-11-29T19:56:24.410Z,85.19
2022-11-29T19:58:52.982Z,85.55
2022-11-29T20:01:22.747Z,85.71
2022-11-29T20:03:50.361Z,86.38
2022-11-29T20:06:20.239Z,85.87
2022-11-29T20:08:48.163Z,85.58
2022-11-29T20:11:19.167Z,85.25
2022-11-29T20:13:54.582Z,85.50
2022-11-29T20:16:22.735Z,85.54
2022-11-29T20:18:52.060Z,85.58
2022-11-29T20:21:23.685Z,85.50
2022-11-29T20:23:56.001Z,85.46
2022-11-29T20:26:23.243Z,86.03
2022-11-29T20:28:50.247Z,85.72
2022-11-29T20:31:21.917Z,85.49
2022-11-29T20:33:52.412Z,85.71
2022-11-29T20:36:40.916Z,86.33
2022-11-29T20:39:24.907Z,86.26
2022-11-29T20:42:18.940Z,86.43
2022-11-29T20:44:53.457Z,86.48
2022-11-29T20:47:25.257Z,87.37
2022-11-29T20:49:53.759Z,87.05
2022-11-29T20:52:40.290Z,87.31
2022-11-29T20:55:08.102Z,87.19
2022-11-29T20:57:35.054Z,87.02
2022-11-29T21:00:01.953Z,87.00
2022-11-29T21:02:30.386Z,87.36
2022-11-29T21:04:57.285Z,86.96
2022-11-29T21:07:24.786Z,87.06
2022-11-29T21:09:54.370Z,87.17
2022-11-29T21:12:24.639Z,87.68
2022-11-29T21:14:52.249Z,87.61
2022-11-29T21:17:20.173Z,87.26
2022-11-29T21:19:49.416Z,87.70
2022-11-29T21:22:27.911Z,87.75
2022-11-29T21:25:10.405Z,87.40
2022-11-29T21:27:38.439Z,87.07
2022-11-29T21:30:07.243Z,87.62
2022-11-29T21:32:35.395Z,86.93
2022-11-29T21:35:04.638Z,87.33
2022-11-29T21:37:31.619Z,87.22
2022-11-29T21:39:58.410Z,86.99
2022-11-29T21:42:26.365Z,87.30
2022-11-29T21:44:53.355Z,86.67
2022-11-29T21:47:20.480Z,86.86
2022-11-29T21:49:47.305Z,86.44
2022-11-29T21:52:21.962Z,86.90
2022-11-29T21:54:50.364Z,86.50
2022-11-29T21:57:17.386Z,86.63
2022-11-29T21:59:44.324Z,86.59
2022-11-29T22:02:11.223Z,86.36
2022-11-29T22:04:38.208Z,86.63
2022-11-29T22:07:05.107Z,86.65
2022-11-29T22:09:33.320Z,86.36
2022-11-29T22:12:00.073Z,86.63
2022-11-29T22:14:26.965Z,86.70
2022-11-29T22:16:57.939Z,86.47
2022-11-29T22:19:27.780Z,86.71
2022-11-29T22:21:57.870Z,87.28
2022-11-29T22:24:28.230Z,87.02
2022-11-29T22:26:57.132Z,87.71
2022-11-29T22:29:25.012Z,87.71
2022-11-29T22:31:54.394Z,87.43
2022-11-29T22:34:23.473Z,87.49
2022-11-29T22:36:51.435Z,87.36
2022-11-29T22:39:18.393Z,87.17
2022-11-29T22:41:50.678Z,87.27
2022-11-29T22:44:22.335Z,87.09
2022-11-29T22:46:49.151Z,87.49
2022-11-29T22:49:16.501Z,87.60
2022-11-29T22:51:43.809Z,87.32
2022-11-29T22:54:11.611Z,87.31
2022-11-29T22:56:41.459Z,87.27
2022-11-29T22:59:09.186Z,87.93
2022-11-29T23:01:39.977Z,87.68
2022-11-29T23:04:11.195Z,87.84
2022-11-29T23:06:41.758Z,88.04
2022-11-29T23:09:11.905Z,88.00
2022-11-29T23:11:39.122Z,88.11
2022-11-29T23:14:05.943Z,88.04
2022-11-29T23:16:33.088Z,88.78
2022-11-29T23:19:01.820Z,88.38
2022-11-29T23:21:31.071Z,88.98
2022-11-29T23:23:59.457Z,88.82
2022-11-29T23:26:29.763Z,89.02
2022-11-29T23:28:58.030Z,88.88
2022-11-29T23:31:25.719Z,88.94
2022-11-29T23:33:52.731Z,88.71
2022-11-29T23:36:21.465Z,89.82
2022-11-29T23:38:49.057Z,88.44
2022-11-29T23:41:16.567Z,87.76
2022-11-29T23:43:43.395Z,87.97
2022-11-29T23:46:14.237Z,87.13
2022-11-29T23:48:41.972Z,87.21
2022-11-29T23:51:09.385Z,87.72
2022-11-29T23:53:38.137Z,88.33
2022-11-29T23:56:07.701Z,88.48
2022-11-29T23:58:35.220Z,88.11
